Bookmark and Share
Track history (hours):
 

Drifting buoy 46611

Last reported at 2014-Jan-18 03:39 UTC. Time now 2014-Apr-24 22:18 UTC.
Position N 31°12' W 161°60'.
Warning: this ship's position is months out of date.

Water temperature 18.8 ° C

NotesDate/timePositionNaut miles runAvg speedWind from/ knotsBaromVisibWave heightAir tempDewpointWater temp
2014-Jan-18 03:39N 31°12' W 161°60'0 0.0 18.8
2014-Jan-18 02:04N 31°12' W 161°60'0 0.0 18.9
2014-Jan-18 02:00N 31°12' W 161°60'4 0.5 18.9
2014-Jan-17 17:47N 31°10' W 162°04'5 0.4 18.4
2014-Jan-17 04:49N 31°10' W 162°09'2 1.9 18.5
2014-Jan-17 03:54N 31°11' W 162°11'0 0.0 18.7
2014-Jan-17 02:12N 31°11' W 162°11'1 0.5 18.9
2014-Jan-17 00:20N 31°12' W 162°12'3 2.0 19.1
2014-Jan-16 22:41N 31°13' W 162°15'0 0.0 19.1
2014-Jan-16 21:20N 31°13' W 162°15'0 0.0 19.2
2014-Jan-16 20:36N 31°13' W 162°15'16 0.9 19.3
2014-Jan-16 02:26N 31°21' W 162°31'215.9 18.9
2014-Jan-16 02:20N 31°21' W 162°33'0 0.0 19.0
2014-Jan-16 00:41N 31°21' W 162°33'0 0.8 19.0
2014-Jan-16 00:35N 31°21' W 162°33'3 1.9 19.0
2014-Jan-15 22:57N 31°22' W 162°36'0 0.0 19.0
2014-Jan-15 21:44N 31°22' W 162°36'1 0.9 19.0
2014-Jan-15 20:58N 31°22' W 162°36'1 6.8 18.9
2014-Jan-15 20:48N 31°22' W 162°37'0 0.0 18.9
2014-Jan-15 20:01N 31°22' W 162°37'2 0.8 18.9
2014-Jan-15 17:12N 31°20' W 162°39'1 1.7 18.9
2014-Jan-15 16:37N 31°19' W 162°40'1 0.5 18.9
2014-Jan-15 15:04N 31°19' W 162°41'213.4 18.9
2014-Jan-15 14:57N 31°18' W 162°42'10 0.6 18.9
2014-Jan-14 23:04N 31°10' W 162°48'0 0.0 19.4
2014-Jan-14 22:00N 31°10' W 162°48'0 0.0 19.3
2014-Jan-14 21:19N 31°10' W 162°48'1 2.4 19.4
2014-Jan-14 21:01N 31°09' W 162°48'0 0.0 19.4
2014-Jan-14 20:24N 31°09' W 162°48'1 1.4 19.4
2014-Jan-14 19:21N 31°08' W 162°48'1 0.2 19.4
2014-Jan-14 16:26N 31°07' W 162°47'0 0.3 19.5
2014-Jan-14 16:02N 31°07' W 162°47'0 0.3 19.5
2014-Jan-14 15:16N 31°07' W 162°47'0 2.5 19.6
2014-Jan-14 15:08N 31°07' W 162°47'0 0.0 19.6
2014-Jan-14 13:25N 31°07' W 162°47'0 0.1 19.6
2014-Jan-14 09:38N 31°07' W 162°47'0 0.0 19.7
2014-Jan-14 08:40N 31°07' W 162°47'0 0.4 19.8
2014-Jan-14 08:03N 31°07' W 162°47'0 0.0 19.8
2014-Jan-14 07:58N 31°07' W 162°47'0 0.4 19.8
2014-Jan-14 07:14N 31°06' W 162°47'0 0.0 19.8
2014-Jan-14 06:58N 31°06' W 162°47'1 1.6 19.8
2014-Jan-14 06:18N 31°06' W 162°46'0 0.0
2014-Jan-14 04:50N 31°06' W 162°46'0 0.4 19.8
2014-Jan-14 04:04N 31°06' W 162°46'0 0.3 19.8
2014-Jan-14 02:45N 31°06' W 162°45'1 1.8 19.8
2014-Jan-14 02:24N 31°06' W 162°45'0 0.0 19.8
2014-Jan-14 01:04N 31°06' W 162°45'1 8.9 19.8
2014-Jan-14 01:00N 31°06' W 162°44'1 0.3 19.8
2014-Jan-13 23:17N 31°07' W 162°44'1 0.6 19.7
2014-Jan-13 21:20N 31°07' W 162°43'0 4.7 19.7
2014-Jan-13 21:14N 31°08' W 162°43'1 0.4 19.7
2014-Jan-13 19:52N 31°08' W 162°43'0 0.0 19.6
2014-Jan-13 19:38N 31°08' W 162°43'1 0.8 19.6
2014-Jan-13 18:11N 31°09' W 162°44'0 0.0 19.5
2014-Jan-13 16:48N 31°09' W 162°44'0 1.4 19.4
2014-Jan-13 16:36N 31°10' W 162°44'1 0.5 19.4
2014-Jan-13 15:25N 31°10' W 162°44'1 6.1 19.4
2014-Jan-13 15:15N 31°11' W 162°45'1 8.7
2014-Jan-13 15:08N 31°10' W 162°44'1 0.7 19.3
2014-Jan-13 13:38N 31°11' W 162°45'0 0.0 19.2
2014-Jan-13 13:34N 31°11' W 162°45'119.9 19.2
2014-Jan-13 13:30N 31°12' W 162°46'0 0.0 19.2
2014-Jan-13 11:55N 31°12' W 162°46'2 0.7 19.1
2014-Jan-13 08:51N 31°11' W 162°48'1 1.1 18.9
2014-Jan-13 08:20N 31°10' W 162°48'0 7.9 18.9
2014-Jan-13 08:18N 31°10' W 162°49'1 1.3 18.9
2014-Jan-13 07:35N 31°09' W 162°49'0 0.0 18.9
2014-Jan-13 07:12N 31°09' W 162°49'1 0.6 18.9
2014-Jan-13 05:20N 31°08' W 162°50'0 0.6 18.8
2014-Jan-13 04:28N 31°08' W 162°49'1 0.4 18.8
2014-Jan-13 03:00N 31°08' W 162°50'0 0.0 18.8
2014-Jan-13 02:48N 31°08' W 162°50'1 0.5 18.8
2014-Jan-13 01:17N 31°07' W 162°50'0 0.0 18.8
2014-Jan-13 01:05N 31°07' W 162°50'1 0.8 18.8
2014-Jan-12 23:27N 31°06' W 162°50'0 0.0 19.0
2014-Jan-12 21:30N 31°06' W 162°50'0 0.0 19.2
2014-Jan-12 21:06N 31°06' W 162°50'1 1.1 19.2
2014-Jan-12 20:18N 31°05' W 162°51'0 0.0 19.3
2014-Jan-12 19:52N 31°05' W 162°51'0 0.4 19.3
2014-Jan-12 19:24N 31°05' W 162°51'1 0.5 19.4
2014-Jan-12 17:06N 31°04' W 162°51'1 0.7 19.4
2014-Jan-12 15:38N 31°03' W 162°51'1 2.5 19.5
2014-Jan-12 15:25N 31°02' W 162°51'0 0.3 19.5
2014-Jan-12 13:48N 31°02' W 162°51'1 6.6 19.5
2014-Jan-12 13:41N 31°01' W 162°51'0 0.0 19.5
2014-Jan-12 12:08N 31°01' W 162°51'216.1 19.5
2014-Jan-12 12:00N 30°59' W 162°49'0 0.0 19.5
2014-Jan-12 09:05N 30°59' W 162°49'0 0.0 19.7
2014-Jan-12 09:03N 30°59' W 162°49'1 1.8 19.7
2014-Jan-12 08:44N 30°59' W 162°49'0 1.0
2014-Jan-12 08:41N 30°59' W 162°49'1 1.0 19.7
2014-Jan-12 07:55N 30°59' W 162°48'1 1.2 19.7
2014-Jan-12 07:24N 30°59' W 162°47'0 1.3 19.7
2014-Jan-12 07:04N 30°59' W 162°47'1 0.9 19.8
2014-Jan-12 05:55N 30°59' W 162°46'1 0.7 19.8
2014-Jan-12 04:14N 30°59' W 162°45'1 0.7 19.8
2014-Jan-12 03:04N 30°59' W 162°44'1 0.4 19.8
2014-Jan-12 01:28N 30°59' W 162°43'0 1.7 19.8
2014-Jan-12 01:15N 30°59' W 162°43'1 0.9 19.8
2014-Jan-11 23:38N 30°58' W 162°41'129.5 19.8
2014-Jan-11 23:35N 30°59' W 162°43'2 0.8 19.8
2014-Jan-11 21:25N 30°58' W 162°41'0 0.0 19.9
2014-Jan-11 20:39N 30°58' W 162°41'2 2.1 19.9
2014-Jan-11 19:46N 30°57' W 162°39'0 0.0 19.9
2014-Jan-11 17:35N 30°57' W 162°39'2 0.9 19.9
2014-Jan-11 15:48N 30°56' W 162°38'215.1 20.0
2014-Jan-11 15:41N 30°54' W 162°37'0 0.0 20.0
2014-Jan-11 14:08N 30°54' W 162°37'0 0.9 20.0
2014-Jan-11 14:00N 30°54' W 162°37'210.4 20.0
2014-Jan-11 13:50N 30°54' W 162°35'0 0.0 20.0
2014-Jan-11 12:16N 30°54' W 162°35'2 0.8 20.0
2014-Jan-11 09:14N 30°53' W 162°32'0 0.4 20.1
2014-Jan-11 09:05N 30°53' W 162°32'0 0.7 20.1
2014-Jan-11 09:00N 30°53' W 162°32'0 0.4 20.1
2014-Jan-11 08:17N 30°53' W 162°32'1 1.0 20.1
2014-Jan-11 07:38N 30°53' W 162°31'0 1.1 20.1
2014-Jan-11 07:24N 30°53' W 162°31'1 9.3 20.1
2014-Jan-11 07:20N 30°53' W 162°30'0 0.4 20.1
2014-Jan-11 06:24N 30°53' W 162°31'0 0.2 20.1
2014-Jan-11 04:47N 30°53' W 162°30'0 0.4 20.1
2014-Jan-11 03:39N 30°53' W 162°30'0 0.3 20.1
2014-Jan-11 03:18N 30°53' W 162°30'1 0.7 20.2
2014-Jan-11 01:28N 30°52' W 162°29'0 0.0 20.2
2014-Jan-10 23:50N 30°52' W 162°29'1 0.7 20.2
2014-Jan-10 21:50N 30°52' W 162°27'0 0.0 20.3
2014-Jan-10 21:01N 30°52' W 162°27'1 1.0 20.2
2014-Jan-10 20:08N 30°51' W 162°26'1 0.6 20.2
2014-Jan-10 18:04N 30°51' W 162°25'0 0.0 20.2
2014-Jan-10 16:30N 30°51' W 162°25'0 3.1 20.3
2014-Jan-10 16:25N 30°51' W 162°25'0 0.8 20.3
2014-Jan-10 16:00N 30°51' W 162°24'1 0.4 20.3
2014-Jan-10 14:42N 30°51' W 162°24'0 0.0 20.3
2014-Jan-10 14:08N 30°51' W 162°24'1 6.0 20.3
2014-Jan-10 14:01N 30°51' W 162°23'0 0.0 20.3
2014-Jan-10 12:30N 30°51' W 162°23'2 9.5 20.3
2014-Jan-10 12:20N 30°52' W 162°22'0 0.0
2014-Jan-10 08:34N 30°52' W 162°22'1 0.7 20.4
2014-Jan-10 07:50N 30°52' W 162°21'1 6.5 20.4
2014-Jan-10 07:45N 30°52' W 162°22'1 5.5 20.4
2014-Jan-10 07:39N 30°52' W 162°21'1 0.7 20.4
2014-Jan-10 06:54N 30°52' W 162°22'2 2.2 20.4
2014-Jan-10 06:05N 30°53' W 162°20'0 0.0 20.3
2014-Jan-10 04:02N 30°53' W 162°20'1 1.0 20.3
2014-Jan-10 03:28N 30°53' W 162°19'0 0.0 20.3
2014-Jan-10 02:20N 30°53' W 162°19'2 3.8 20.3
2014-Jan-10 01:52N 30°55' W 162°18'132.5 20.3
2014-Jan-10 01:50N 30°54' W 162°19'1 0.6 20.4
2014-Jan-10 00:00N 30°55' W 162°18'2 0.9 20.2
2014-Jan-09 22:03N 30°56' W 162°17'1 1.1 20.2
2014-Jan-09 21:19N 30°57' W 162°17'0 0.0 20.2
2014-Jan-09 20:28N 30°57' W 162°17'0 0.1 20.2
2014-Jan-09 16:58N 30°57' W 162°18'0 0.4 20.1
2014-Jan-09 16:09N 30°56' W 162°18'   20.1

Dump ship's entire track history

sailing weather and tide predictions

Buoy 46611